ADDS METAR Data INFO
IDs: Format: Raw Decoded Include TAF

Data at: 2330 UTC 15 Dec 2017

KLOU 152253Z 23008KT 10SM OVC043 02/M05 A3010 RMK AO2 SLP197 T00221050
KLOU 152153Z 22011KT 10SM OVC044 02/M05 A3008 RMK AO2 SLP192 T00221050
KLOU 152053Z AUTO 24007KT 10SM FEW043 OVC050 03/M05 A3007 RMK AO2 SLP186 T00281050 55006
KLOU 151953Z 25010KT 10SM OVC055 02/M06 A3006 RMK AO2 SLP184 T00221056
KLOU 151853Z 24008G18KT 10SM OVC050 02/M06 A3006 RMK AO2 SLP184 T00221056
KLOU 151753Z 23012KT 10SM BKN050 02/M06 A3008 RMK AO2 SLP192 T00221061 10028 21028 58007
KLOU 151653Z 25010KT 220V290 10SM CLR 02/M06 A3010 RMK AO2 SLP198 T00171056
KLOU 151553Z 28011G21KT 10SM OVC031 00/M06 A3012 RMK AO2 SLP204 T00001061
KLOU 151453Z 26009KT 10SM OVC035 M01/M06 A3011 RMK AO2 SLP200 T10061056 53012
KLOU 151353Z 24006KT 9SM OVC035 M01/M06 A3008 RMK AO2 SLP190 T10111056
KLOU 151253Z 26003KT 9SM OVC035 M02/M06 A3007 RMK AO2 SLP188 T10221061
KLOU 151153Z 00000KT 9SM OVC038 M03/M06 A3007 RMK AO2 SLP188 T10331061 11022 21044 53001
KLOU 151053Z AUTO 00000KT 8SM BKN042 M04/M07 A3006 RMK AO2 SLP185 T10441072
KLOU 150953Z AUTO 00000KT 9SM BKN041 M03/M07 A3007 RMK AO2 SLP186 T10331072
KLOU 150853Z AUTO 18004KT 9SM OVC037 M03/M07 A3007 RMK AO2 SLP188 T10281067 56008
KLOU 150753Z AUTO 00000KT 9SM OVC036 M03/M07 A3008 RMK AO2 SLP190 T10281067
KLOU 150653Z AUTO 00000KT 10SM OVC038 M03/M07 A3008 RMK AO2 SLP192 T10281067
KLOU 150553Z AUTO 09003KT 10SM OVC038 M03/M07 A3010 RMK AO2 SLP196 T10281072 11006 21044 58002
KLOU 150453Z AUTO 07003KT 10SM CLR M04/M08 A3011 RMK AO2 SLP200 T10391083 400611044
KLOU 150353Z AUTO 05003KT 10SM CLR M03/M08 A3010 RMK AO2 SLP198 T10281078
KLOU 150253Z AUTO 35004KT 10SM CLR M02/M08 A3010 RMK AO2 SLP198 T10221078 53005
KLOU 150153Z 01003KT 10SM CLR M02/M08 A3009 RMK AO2 SLP194 T10171078
KLOU 150053Z 01003KT 10SM CLR M01/M08 A3008 RMK AO2 SLP191 T10111078
KLOU 142353Z 31003KT 10SM CLR M01/M08 A3008 RMK AO2 SLP192 T10111078 10022 21011 51012
KLOU 142253Z 26003KT 10SM CLR 00/M09 A3007 RMK AO2 SLP188 T00001089
KLOU 142153Z 00000KT 10SM CLR 01/M09 A3006 RMK AO2 SLP183 T00061094
KLOU 142053Z AUTO 34004KT 10SM CLR 01/M09 A3005 RMK AO2 SLP178 T00111089 55000
KLOU 141953Z 26007KT 10SM FEW040 02/M07 A3003 RMK AO2 SLP172 T00221072
KLOU 141853Z 30007KT 10SM FEW036 02/M08 A3003 RMK AO2 SLP174 T00171078
KLOU 141753Z 31008KT 10SM BKN034 01/M07 A3005 RMK AO2 SLP178 T00061072 10011 20000 51013
KLOU 141653Z 34008KT 10SM OVC032 01/M07 A3005 RMK AO2 SLP178 T00061072
KLOU 141553Z 36010KT 10SM OVC030 00/M07 A3004 RMK AO2 SLP173 T00001067
KLOU 141453Z 33006KT 10SM OVC030 01/M06 A3001 RMK AO2 SLP164 T00061061 51025
KLOU 141353Z 01005KT 10SM OVC030 01/M06 A2998 RMK AO2 SLP155 T00061061
KLOU 141253Z 36005KT 10SM OVC030 00/M06 A2997 RMK AO2 SLP149 T00001061
KLOU 141153Z 35005G14KT 10SM OVC033 00/M06 A2993 RMK AO2 SLP138 T00001061 10044 20000 51035